createdAt,value
2023-01-04T00:02:13.963Z,71.63
2023-01-04T00:04:42.385Z,100.83
2023-01-04T00:07:11.331Z,100.23
2023-01-04T00:09:39.889Z,99.47
2023-01-04T00:12:08.740Z,192.57
2023-01-04T00:14:37.159Z,189.20
2023-01-04T00:17:06.870Z,98.93
2023-01-04T00:19:36.149Z,93.43
2023-01-04T00:22:04.846Z,72.97
2023-01-04T00:24:33.228Z,98.70
2023-01-04T00:27:01.724Z,96.53
2023-01-04T00:29:30.744Z,90.30
2023-01-04T00:31:59.556Z,56.70
2023-01-04T00:34:29.534Z,54.30
2023-01-04T00:36:58.366Z,40.20
2023-01-04T00:39:26.928Z,127.30
2023-01-04T00:42:05.534Z,97.87
2023-01-04T00:44:35.465Z,154.27
2023-01-04T00:47:06.008Z,70.60
2023-01-04T00:49:35.912Z,93.73
2023-01-04T00:52:05.111Z,64.60
2023-01-04T00:54:33.523Z,79.40
2023-01-04T00:57:03.047Z,82.23
2023-01-04T00:59:31.708Z,76.10
2023-01-04T01:02:00.617Z,62.40
2023-01-04T01:04:29.675Z,82.43
2023-01-04T01:06:59.570Z,74.33
2023-01-04T01:09:28.918Z,70.10
2023-01-04T01:11:57.317Z,68.57
2023-01-04T01:14:26.880Z,86.17
2023-01-04T01:16:58.062Z,67.03
2023-01-04T01:19:29.029Z,41.40
2023-01-04T01:22:00.002Z,29.20
2023-01-04T01:24:28.847Z,79.77
2023-01-04T01:26:58.148Z,41.13
2023-01-04T01:29:26.597Z,46.83
2023-01-04T01:31:55.481Z,82.97
2023-01-04T01:34:24.865Z,98.63
2023-01-04T01:36:53.249Z,18.80
2023-01-04T01:39:24.070Z,169.37
2023-01-04T01:41:52.441Z,91.37
2023-01-04T01:44:58.572Z,43.00
2023-01-04T01:47:31.513Z,68.83
2023-01-04T01:50:01.401Z,179.30
2023-01-04T01:52:34.041Z,56.23
2023-01-04T01:55:09.265Z,90.67
2023-01-04T01:57:39.874Z,75.17
2023-01-04T02:00:14.829Z,133.40
2023-01-04T02:02:50.453Z,174.37
2023-01-04T02:05:20.904Z,49.07
2023-01-04T02:07:51.187Z,42.53
2023-01-04T02:10:21.465Z,94.80
2023-01-04T02:12:52.195Z,149.67
2023-01-04T02:15:23.698Z,101.53
2023-01-04T02:18:00.183Z,63.90
2023-01-04T02:20:45.595Z,137.50
2023-01-04T02:24:01.401Z,73.60
2023-01-04T02:26:51.942Z,32.93
2023-01-04T02:30:06.600Z,80.63
2023-01-04T02:32:47.430Z,34.80
2023-01-04T02:35:23.225Z,69.37
2023-01-04T02:37:59.622Z,88.10
2023-01-04T02:40:35.956Z,13.20
2023-01-04T02:43:30.708Z,53.33
2023-01-04T02:46:05.209Z,31.90
2023-01-04T02:48:56.881Z,18.60
2023-01-04T02:51:31.395Z,12.83
2023-01-04T02:54:02.142Z,11.77
2023-01-04T02:56:43.146Z,17.33
2023-01-04T02:59:36.342Z,21.43
2023-01-04T03:02:38.817Z,30.10
2023-01-04T03:05:39.975Z,49.50
2023-01-04T03:08:18.007Z,79.70
2023-01-04T03:10:51.853Z,23.83
2023-01-04T03:13:24.674Z,22.47
2023-01-04T03:15:55.373Z,20.50
2023-01-04T03:18:28.546Z,15.37
2023-01-04T03:21:01.297Z,13.73
2023-01-04T03:23:53.128Z,12.77
2023-01-04T03:26:43.054Z,14.67
2023-01-04T03:29:36.370Z,16.27
2023-01-04T03:32:27.192Z,14.93
2023-01-04T03:35:14.425Z,14.93
2023-01-04T03:37:50.034Z,12.30
2023-01-04T03:40:43.560Z,18.47
2023-01-04T03:43:35.919Z,28.13
2023-01-04T03:46:27.101Z,64.53
2023-01-04T03:49:00.144Z,35.63
2023-01-04T03:51:32.887Z,40.90
2023-01-04T03:54:09.578Z,45.90
2023-01-04T03:56:42.577Z,85.90
2023-01-04T03:59:12.844Z,143.23
2023-01-04T04:01:45.292Z,155.20
2023-01-04T04:04:34.660Z,22.80
2023-01-04T04:07:20.494Z,34.53
2023-01-04T04:09:50.748Z,44.03
2023-01-04T04:12:19.174Z,53.57
2023-01-04T04:14:48.302Z,40.10
2023-01-04T04:17:16.676Z,89.03
2023-01-04T04:19:45.065Z,87.93
2023-01-04T04:22:13.855Z,51.50
2023-01-04T04:24:42.460Z,75.37
2023-01-04T04:27:12.816Z,72.23
2023-01-04T04:29:41.407Z,67.40
2023-01-04T04:32:10.627Z,23.90
2023-01-04T04:34:40.915Z,33.40
2023-01-04T04:37:10.899Z,23.83
2023-01-04T04:39:39.357Z,53.27
2023-01-04T04:42:07.560Z,25.57
2023-01-04T04:44:37.640Z,95.10
2023-01-04T04:47:07.103Z,60.93
2023-01-04T04:49:35.547Z,256.43
2023-01-04T04:52:04.819Z,199.63
2023-01-04T04:54:33.678Z,325.07
2023-01-04T04:57:02.240Z,96.37
2023-01-04T04:59:31.233Z,62.80
2023-01-04T05:02:01.169Z,30.00
2023-01-04T05:04:30.326Z,25.60
2023-01-04T05:06:58.962Z,161.37
2023-01-04T05:09:27.324Z,53.27
2023-01-04T05:12:16.451Z,97.20
2023-01-04T05:14:44.817Z,94.30
2023-01-04T05:17:15.118Z,42.53
2023-01-04T05:19:43.512Z,32.90
2023-01-04T05:22:12.899Z,22.27
2023-01-04T05:24:41.301Z,34.17
2023-01-04T05:27:10.695Z,30.50
2023-01-04T05:29:56.979Z,19.20
2023-01-04T05:32:27.486Z,23.97
2023-01-04T05:34:56.523Z,31.37
2023-01-04T05:37:26.032Z,23.90
2023-01-04T05:39:54.589Z,74.67
2023-01-04T05:42:28.404Z,57.87
2023-01-04T05:44:58.651Z,25.13
2023-01-04T05:47:29.370Z,22.17
2023-01-04T05:49:57.873Z,18.53
2023-01-04T05:52:27.605Z,33.40
2023-01-04T05:54:56.026Z,36.70
2023-01-04T05:57:25.164Z,33.63
2023-01-04T05:59:53.640Z,31.20
2023-01-04T06:02:25.164Z,19.47
2023-01-04T06:04:59.087Z,21.30
2023-01-04T06:07:28.863Z,22.73
2023-01-04T06:09:58.353Z,17.07
2023-01-04T06:12:27.039Z,15.87
2023-01-04T06:14:56.395Z,37.57
2023-01-04T06:17:24.773Z,23.80
2023-01-04T06:19:55.493Z,23.30
2023-01-04T06:22:24.047Z,23.70
2023-01-04T06:24:53.088Z,18.23
2023-01-04T06:27:21.465Z,16.53
2023-01-04T06:29:50.680Z,17.43
2023-01-04T06:32:19.074Z,24.53
2023-01-04T06:34:48.501Z,28.47
2023-01-04T06:37:18.617Z,32.63
2023-01-04T06:39:46.978Z,17.13
2023-01-04T06:42:30.267Z,18.93
2023-01-04T06:44:59.271Z,16.63
2023-01-04T06:47:27.732Z,20.13
2023-01-04T06:49:56.219Z,16.03
2023-01-04T06:52:26.579Z,19.43
2023-01-04T06:54:55.108Z,24.30
2023-01-04T06:57:24.067Z,21.67
2023-01-04T06:59:53.003Z,29.23
2023-01-04T07:02:21.499Z,24.17
2023-01-04T07:04:50.327Z,22.13
2023-01-04T07:07:18.905Z,26.47
2023-01-04T07:09:49.146Z,23.17
2023-01-04T07:12:17.587Z,27.13
2023-01-04T07:14:46.091Z,30.70
2023-01-04T07:17:14.485Z,27.63
2023-01-04T07:19:43.809Z,28.90
2023-01-04T07:22:12.401Z,26.37
2023-01-04T07:24:41.524Z,23.67
2023-01-04T07:27:12.377Z,26.13
2023-01-04T07:29:44.261Z,31.10
2023-01-04T07:32:14.108Z,27.70
2023-01-04T07:34:43.280Z,28.63
2023-01-04T07:37:13.070Z,26.37
2023-01-04T07:39:41.537Z,32.30
2023-01-04T07:42:11.350Z,30.67
2023-01-04T07:44:40.242Z,31.63
2023-01-04T07:47:08.876Z,27.17
2023-01-04T07:49:38.161Z,28.83
2023-01-04T07:52:06.558Z,25.93
2023-01-04T07:54:35.842Z,23.53
2023-01-04T07:57:04.222Z,23.93
2023-01-04T07:59:34.687Z,25.87
2023-01-04T08:02:03.685Z,22.03
2023-01-04T08:04:35.111Z,22.80
2023-01-04T08:07:07.337Z,19.40
2023-01-04T08:09:35.744Z,23.40
2023-01-04T08:12:05.415Z,20.97
2023-01-04T08:14:44.418Z,21.73
2023-01-04T08:17:13.481Z,19.40
2023-01-04T08:19:42.314Z,18.83
2023-01-04T08:22:10.708Z,17.70
2023-01-04T08:24:40.699Z,20.40
2023-01-04T08:27:09.061Z,15.90
2023-01-04T08:29:37.729Z,13.57
2023-01-04T08:32:07.701Z,12.30
2023-01-04T08:34:36.435Z,9.57
2023-01-04T08:37:04.773Z,11.13
2023-01-04T08:39:36.044Z,9.43
2023-01-04T08:42:17.960Z,9.70
2023-01-04T08:44:57.109Z,9.63
2023-01-04T08:47:29.752Z,9.10
2023-01-04T08:49:59.856Z,8.43
2023-01-04T08:52:29.957Z,8.70
2023-01-04T08:54:59.090Z,6.53
2023-01-04T08:57:27.589Z,7.13
2023-01-04T08:59:56.706Z,6.60
2023-01-04T09:02:29.005Z,7.53
2023-01-04T09:05:00.535Z,7.80
2023-01-04T09:07:30.692Z,6.50
2023-01-04T09:10:00.678Z,6.80
2023-01-04T09:12:29.157Z,7.83
2023-01-04T09:14:57.910Z,7.17
2023-01-04T09:17:28.167Z,7.67
2023-01-04T09:19:56.581Z,6.40
2023-01-04T09:22:26.222Z,5.77
2023-01-04T09:24:55.221Z,6.63
2023-01-04T09:27:24.421Z,5.37
2023-01-04T09:29:53.850Z,6.17
2023-01-04T09:32:22.264Z,5.30
2023-01-04T09:34:53.230Z,8.67
2023-01-04T09:37:22.089Z,5.67
2023-01-04T09:39:50.567Z,5.97
2023-01-04T09:42:25.402Z,7.47
2023-01-04T09:47:54.615Z,5.20
2023-01-04T09:50:29.256Z,6.03
2023-01-04T09:53:04.612Z,5.43
2023-01-04T09:55:40.869Z,5.73
2023-01-04T09:58:22.267Z,5.63
2023-01-04T10:00:53.552Z,5.47
2023-01-04T10:03:27.186Z,6.30
2023-01-04T10:05:57.616Z,5.90
2023-01-04T10:08:26.673Z,5.90
2023-01-04T10:11:10.279Z,5.10
2023-01-04T10:13:53.462Z,6.17
2023-01-04T10:17:10.424Z,5.00
2023-01-04T10:22:38.471Z,5.43
2023-01-04T10:25:25.595Z,5.60
2023-01-04T10:28:12.186Z,6.83
2023-01-04T10:30:50.639Z,5.13
2023-01-04T10:33:25.249Z,5.63
2023-01-04T10:35:55.083Z,5.93
2023-01-04T10:38:28.573Z,5.90
2023-01-04T10:41:01.011Z,6.43
2023-01-04T10:44:09.706Z,5.17
2023-01-04T10:46:31.780Z,4.97
2023-01-04T10:49:08.530Z,5.80
2023-01-04T10:51:42.245Z,4.20
2023-01-04T10:54:17.743Z,4.80
2023-01-04T10:56:52.432Z,4.60
2023-01-04T10:59:25.415Z,16.87
2023-01-04T11:02:00.096Z,12.07
2023-01-04T11:04:34.268Z,9.07
2023-01-04T11:07:09.110Z,3.90
2023-01-04T11:09:44.325Z,5.07
2023-01-04T11:12:16.918Z,4.67
2023-01-04T11:14:46.398Z,5.77
2023-01-04T11:17:15.173Z,3.20
2023-01-04T11:19:44.836Z,4.57
2023-01-04T11:22:18.716Z,4.33
2023-01-04T11:25:33.196Z,3.57
2023-01-04T11:27:47.647Z,3.73
2023-01-04T11:30:20.569Z,4.60
2023-01-04T11:32:56.030Z,5.37
2023-01-04T11:35:42.745Z,4.33
2023-01-04T11:38:14.933Z,4.30
2023-01-04T11:40:56.508Z,3.13
2023-01-04T11:43:26.534Z,4.47
2023-01-04T11:46:22.932Z,4.47
2023-01-04T11:48:52.600Z,4.63
2023-01-04T11:51:36.942Z,4.43
2023-01-04T11:54:08.058Z,3.37
2023-01-04T11:56:38.859Z,3.23
2023-01-04T11:59:17.963Z,3.93
2023-01-04T12:01:51.718Z,2.87
2023-01-04T12:04:23.556Z,4.27
2023-01-04T12:06:54.898Z,3.17
2023-01-04T12:09:24.124Z,4.73
2023-01-04T12:11:56.236Z,3.20
2023-01-04T12:14:27.157Z,3.07
2023-01-04T12:17:01.663Z,3.93
2023-01-04T12:19:31.782Z,3.33
2023-01-04T12:22:02.549Z,6.97
2023-01-04T12:24:33.893Z,3.33
2023-01-04T12:27:04.987Z,3.90
2023-01-04T12:29:50.385Z,2.00
2023-01-04T12:32:42.885Z,2.10
2023-01-04T12:36:06.664Z,2.83
2023-01-04T12:39:07.291Z,3.00
2023-01-04T12:42:22.286Z,3.77
2023-01-04T12:45:25.257Z,1.87
2023-01-04T12:48:12.741Z,1.43
2023-01-04T12:51:31.149Z,1.20
2023-01-04T12:54:03.496Z,2.60
2023-01-04T12:57:08.993Z,1.70
2023-01-04T12:59:39.656Z,2.03
2023-01-04T13:02:26.797Z,1.67
2023-01-04T13:05:43.785Z,1.10
2023-01-04T13:07:50.013Z,2.23
2023-01-04T13:10:27.157Z,1.73
2023-01-04T13:13:06.299Z,1.50
2023-01-04T13:15:53.871Z,1.73
2023-01-04T13:18:34.786Z,1.33
2023-01-04T13:21:05.990Z,2.60
2023-01-04T13:23:34.462Z,1.80
2023-01-04T13:26:29.557Z,1.63
2023-01-04T13:29:14.426Z,1.83
2023-01-04T13:31:52.267Z,1.60
2023-01-04T13:34:25.439Z,2.47
2023-01-04T13:36:56.765Z,1.17
2023-01-04T13:39:25.621Z,1.23
2023-01-04T13:41:54.793Z,1.10
2023-01-04T13:45:20.888Z,2.60
2023-01-04T13:47:42.119Z,1.83
2023-01-04T13:50:28.640Z,0.95
2023-01-04T13:53:13.548Z,1.43
2023-01-04T13:55:42.328Z,1.23
2023-01-04T13:58:19.075Z,0.83
2023-01-04T14:00:51.552Z,0.82
2023-01-04T14:03:41.395Z,1.33
2023-01-04T14:06:32.854Z,1.90
2023-01-04T14:09:05.606Z,1.20
2023-01-04T14:12:08.482Z,1.70
2023-01-04T14:14:49.270Z,2.03
2023-01-04T14:17:21.855Z,0.87
2023-01-04T14:19:53.600Z,1.70
2023-01-04T14:22:39.894Z,1.93
2023-01-04T14:25:40.464Z,2.57
2023-01-04T14:28:22.360Z,1.60
2023-01-04T14:30:52.441Z,1.00
2023-01-04T14:33:28.243Z,1.00
2023-01-04T14:36:05.493Z,2.63
2023-01-04T14:38:39.728Z,0.80
2023-01-04T14:41:13.489Z,1.40
2023-01-04T14:43:47.801Z,2.27
2023-01-04T14:46:16.934Z,1.50
2023-01-04T14:48:45.816Z,3.13
2023-01-04T14:51:18.120Z,1.37
2023-01-04T14:53:48.330Z,3.97
2023-01-04T14:56:18.726Z,3.07
2023-01-04T14:58:47.082Z,2.17
2023-01-04T15:01:16.140Z,2.67
2023-01-04T15:03:44.682Z,1.30
2023-01-04T15:06:14.350Z,1.53
2023-01-04T15:08:43.192Z,1.83
2023-01-04T15:11:13.891Z,2.90
2023-01-04T15:13:43.279Z,2.40
2023-01-04T15:16:14.309Z,1.57
2023-01-04T15:18:43.200Z,2.28
2023-01-04T15:21:12.543Z,3.37
2023-01-04T15:23:41.629Z,3.30
2023-01-04T15:26:14.235Z,0.77
2023-01-04T15:28:42.882Z,1.90
2023-01-04T15:31:14.337Z,2.70
2023-01-04T15:33:42.715Z,0.80
2023-01-04T15:36:20.013Z,3.07
2023-01-04T15:38:55.479Z,1.97
2023-01-04T15:41:43.420Z,2.00
2023-01-04T15:44:12.478Z,1.05
2023-01-04T15:46:41.625Z,0.77
2023-01-04T15:49:16.704Z,1.43
2023-01-04T15:51:46.142Z,1.63
2023-01-04T15:54:15.604Z,1.03
2023-01-04T15:56:45.362Z,1.50
2023-01-04T15:59:15.129Z,0.80
2023-01-04T16:01:43.979Z,1.00
2023-01-04T16:04:12.904Z,1.17
2023-01-04T16:06:41.821Z,0.90
2023-01-04T16:09:11.184Z,2.72
2023-01-04T16:12:01.548Z,1.87
2023-01-04T16:14:31.850Z,1.33
2023-01-04T16:17:00.687Z,1.27
2023-01-04T16:19:32.212Z,1.00
2023-01-04T16:22:01.719Z,1.52
2023-01-04T16:25:08.814Z,0.70
2023-01-04T16:27:19.650Z,1.70
2023-01-04T16:29:51.067Z,1.67
2023-01-04T16:32:20.044Z,2.17
2023-01-04T16:34:51.009Z,3.22
2023-01-04T16:37:19.535Z,0.95
2023-01-04T16:40:05.879Z,7.05
2023-01-04T16:42:35.648Z,1.02
2023-01-04T16:45:06.666Z,0.85
2023-01-04T16:47:41.116Z,1.85
2023-01-04T16:50:11.235Z,3.15
2023-01-04T16:52:42.689Z,1.23
2023-01-04T16:55:12.105Z,2.13
2023-01-04T16:57:40.527Z,1.30
2023-01-04T17:00:12.128Z,1.67
2023-01-04T17:02:40.635Z,2.37
2023-01-04T17:05:10.232Z,1.23
2023-01-04T17:07:38.633Z,2.15
2023-01-04T17:10:08.295Z,1.23
2023-01-04T17:12:52.522Z,0.90
2023-01-04T17:18:15.244Z,1.30
2023-01-04T17:20:44.095Z,1.00
2023-01-04T17:23:12.826Z,2.17
2023-01-04T17:25:41.424Z,2.45
2023-01-04T17:28:10.860Z,1.57
2023-01-04T17:30:43.490Z,3.17
2023-01-04T17:33:12.776Z,0.73
2023-01-04T17:35:41.815Z,8.00
2023-01-04T17:38:10.418Z,1.60
2023-01-04T17:40:39.210Z,1.27
2023-01-04T17:43:07.634Z,1.25
2023-01-04T17:45:36.507Z,1.05
2023-01-04T17:48:07.993Z,1.67
2023-01-04T17:50:36.391Z,2.28
2023-01-04T17:53:05.645Z,2.80
2023-01-04T17:55:35.776Z,1.60
2023-01-04T17:58:08.031Z,2.05
2023-01-04T18:00:42.897Z,1.63
2023-01-04T18:03:13.036Z,3.33
2023-01-04T18:05:51.909Z,1.88
2023-01-04T18:08:21.745Z,1.65
2023-01-04T18:11:06.763Z,1.67
2023-01-04T18:16:23.970Z,4.40
2023-01-04T18:18:56.211Z,35.37
2023-01-04T18:21:29.191Z,76.53
2023-01-04T18:29:37.480Z,1.40
2023-01-04T18:32:06.327Z,6.20
2023-01-04T18:34:36.223Z,10.95
2023-01-04T18:37:04.796Z,3.63
2023-01-04T18:39:33.120Z,2.20
2023-01-04T18:42:01.550Z,1.58
2023-01-04T18:44:33.370Z,6.57
2023-01-04T18:47:02.791Z,3.60
2023-01-04T18:49:32.013Z,4.00
2023-01-04T18:52:01.721Z,5.15
2023-01-04T18:54:30.955Z,1.42
2023-01-04T18:57:01.203Z,1.90
2023-01-04T18:59:30.384Z,2.20
2023-01-04T19:02:02.304Z,2.43
2023-01-04T19:04:34.408Z,3.03
2023-01-04T19:07:04.164Z,1.70
2023-01-04T19:09:33.192Z,2.17
2023-01-04T19:12:02.518Z,2.58
2023-01-04T19:14:31.088Z,1.63
2023-01-04T19:16:59.600Z,2.10
2023-01-04T19:19:28.001Z,3.88
2023-01-04T19:21:56.832Z,3.13
2023-01-04T19:24:26.833Z,1.95
2023-01-04T19:27:02.962Z,2.45
2023-01-04T19:29:32.835Z,1.67
2023-01-04T19:32:01.336Z,1.85
2023-01-04T19:34:30.506Z,4.50
2023-01-04T19:36:58.896Z,2.08
2023-01-04T19:39:29.297Z,1.63
2023-01-04T19:41:57.879Z,2.10
2023-01-04T19:44:26.715Z,2.05
2023-01-04T19:46:55.538Z,1.65
2023-01-04T19:49:23.965Z,2.10
2023-01-04T19:51:52.343Z,1.33
2023-01-04T19:54:25.386Z,1.92
2023-01-04T19:56:55.891Z,4.20
2023-01-04T19:59:24.428Z,1.67
2023-01-04T20:01:53.084Z,1.83
2023-01-04T20:04:21.998Z,2.75
2023-01-04T20:06:50.443Z,1.38
2023-01-04T20:09:24.734Z,2.22
2023-01-04T20:11:55.315Z,1.63
2023-01-04T20:14:24.413Z,2.00
2023-01-04T20:16:53.447Z,1.63
2023-01-04T20:19:21.871Z,1.65
2023-01-04T20:21:50.914Z,1.67
2023-01-04T20:24:19.447Z,3.20
2023-01-04T20:26:48.444Z,0.93
2023-01-04T20:29:18.929Z,2.50
2023-01-04T20:31:47.601Z,1.00
2023-01-04T20:34:16.626Z,1.95
2023-01-04T20:36:45.004Z,2.40
2023-01-04T20:39:13.383Z,1.40
2023-01-04T20:42:02.418Z,1.95
2023-01-04T20:44:31.352Z,1.40
2023-01-04T20:46:59.952Z,1.40
2023-01-04T20:49:28.898Z,3.38
2023-01-04T20:51:57.433Z,1.27
2023-01-04T20:54:26.572Z,2.55
2023-01-04T20:56:55.408Z,3.30
2023-01-04T20:59:23.859Z,1.15
2023-01-04T21:01:54.509Z,2.85
2023-01-04T21:04:23.049Z,1.65
2023-01-04T21:06:51.929Z,1.88
2023-01-04T21:09:20.733Z,1.67
2023-01-04T21:11:49.187Z,1.23
2023-01-04T21:14:18.336Z,1.73
2023-01-04T21:16:46.755Z,0.82
2023-01-04T21:19:17.484Z,2.05
2023-01-04T21:21:46.300Z,2.40
2023-01-04T21:24:14.723Z,0.70
2023-01-04T21:26:43.540Z,1.63
2023-01-04T21:29:11.981Z,1.63
2023-01-04T21:31:40.673Z,4.50
2023-01-04T21:34:14.309Z,1.85
2023-01-04T21:36:45.862Z,2.17
2023-01-04T21:39:14.700Z,1.15
2023-01-04T21:41:47.887Z,2.60
2023-01-04T21:44:17.596Z,0.70
2023-01-04T21:46:46.182Z,0.90
2023-01-04T21:49:15.277Z,0.65
2023-01-04T21:51:44.997Z,1.20
2023-01-04T21:54:13.884Z,2.63
2023-01-04T21:56:43.238Z,2.08
2023-01-04T21:59:11.856Z,1.52
2023-01-04T22:01:40.964Z,1.05
2023-01-04T22:04:09.959Z,1.00
2023-01-04T22:06:41.554Z,1.73
2023-01-04T22:09:11.321Z,1.92
2023-01-04T22:11:41.273Z,0.85
2023-01-04T22:14:11.988Z,0.98
2023-01-04T22:16:40.544Z,0.90
2023-01-04T22:19:13.312Z,1.05
2023-01-04T22:21:42.922Z,1.55
2023-01-04T22:24:14.606Z,1.58
2023-01-04T22:26:44.956Z,1.77
2023-01-04T22:29:13.735Z,1.45
2023-01-04T22:31:42.413Z,1.17
2023-01-04T22:34:11.185Z,2.15
2023-01-04T22:36:40.095Z,1.33
2023-01-04T22:39:08.994Z,1.30
2023-01-04T22:41:40.097Z,0.55
2023-01-04T22:44:08.588Z,1.58
2023-01-04T22:46:37.212Z,0.93
2023-01-04T22:49:06.519Z,0.95
2023-01-04T22:51:34.861Z,1.90
2023-01-04T22:54:05.645Z,1.55
2023-01-04T22:56:35.050Z,1.70
2023-01-04T22:59:04.789Z,1.55
2023-01-04T23:01:34.915Z,3.45
2023-01-04T23:04:04.993Z,1.92
2023-01-04T23:06:34.883Z,0.93
2023-01-04T23:09:05.656Z,3.65
2023-01-04T23:11:36.607Z,1.20
2023-01-04T23:14:09.008Z,1.10
2023-01-04T23:16:37.483Z,1.25
2023-01-04T23:19:07.998Z,0.80
2023-01-04T23:21:37.045Z,0.95
2023-01-04T23:24:07.134Z,0.68
2023-01-04T23:26:35.912Z,1.10
2023-01-04T23:29:04.340Z,0.60
2023-01-04T23:31:35.878Z,1.10
2023-01-04T23:34:06.519Z,1.70
2023-01-04T23:36:37.747Z,1.80
2023-01-04T23:39:09.105Z,0.95
2023-01-04T23:41:47.926Z,0.88
2023-01-04T23:44:19.144Z,1.50
2023-01-04T23:46:53.752Z,1.15
2023-01-04T23:49:23.337Z,1.67
2023-01-04T23:51:52.780Z,2.78
2023-01-04T23:54:21.632Z,2.22
2023-01-04T23:56:50.817Z,0.50
2023-01-04T23:59:20.429Z,1.60
